Time;durP1;ratioP1;P1;durP2;ratioP2;P2;SDS_P1;SDS_P2;PMS_P1;PMS_P2;Temp;Humidity;BMP_temperature;BMP_pressure;BME280_temperature;BME280_humidity;BME280_pressure;Samples;Min_cycle;Max_cycle;Signal;HPM_P1;HPM_P2
2021/08/20 00:01:53;;;;;;;12.27;4.32;;;;;;;-141.23;100.00;62281.09;4973569;28;20542;-73
2021/08/20 00:04:20;;;;;;;13.73;4.30;;;;;;;-141.23;100.00;62281.09;4974466;28;20057;-72
2021/08/20 00:06:46;;;;;;;9.43;4.00;;;;;;;-141.23;100.00;62281.09;4992109;28;20078;-73
2021/08/20 00:09:12;;;;;;;7.28;3.80;;;;;;;-141.23;100.00;62281.09;5008813;28;20045;-73
2021/08/20 00:11:39;;;;;;;7.43;3.78;;;;;;;-141.23;100.00;62281.09;4992991;28;20454;-73
2021/08/20 00:14:06;;;;;;;13.50;3.83;;;;;;;-141.23;100.00;62281.09;4993091;28;20121;-73
2021/08/20 00:16:32;;;;;;;10.73;4.05;;;;;;;-141.23;100.00;62281.09;4978888;28;20049;-73
2021/08/20 00:18:58;;;;;;;8.80;3.50;;;;;;;-141.23;100.00;62281.09;4962191;28;20045;-73
2021/08/20 00:21:24;;;;;;;13.23;3.75;;;;;;;-141.23;100.00;62281.09;5012201;28;20111;-73
2021/08/20 00:23:49;;;;;;;9.10;3.75;;;;;;;-141.23;100.00;62281.09;5010795;28;20128;-73
2021/08/20 00:26:15;;;;;;;13.25;3.80;;;;;;;-141.23;100.00;62281.09;4978291;28;20045;-74
2021/08/20 00:28:41;;;;;;;15.52;3.70;;;;;;;-141.23;100.00;62281.09;4978833;28;20042;-73
2021/08/20 00:31:09;;;;;;;12.27;4.30;;;;;;;-141.23;100.00;62281.09;4994840;28;20045;-73
2021/08/20 00:33:36;;;;;;;8.43;3.72;;;;;;;-141.23;100.00;62281.09;5011972;28;20040;-73
2021/08/20 00:36:05;;;;;;;8.93;3.30;;;;;;;-141.23;100.00;62281.09;4994552;28;20132;-74
2021/08/20 00:38:31;;;;;;;12.38;4.20;;;;;;;-141.23;100.00;62281.09;4960293;28;20088;-74
2021/08/20 00:40:57;;;;;;;15.43;3.97;;;;;;;-141.23;100.00;62281.09;4978308;28;20038;-73
2021/08/20 00:43:25;;;;;;;10.25;4.25;;;;;;;-141.23;100.00;62281.09;4994566;28;20057;-72
2021/08/20 00:45:59;;;;;;;8.85;3.88;;;;;;;-141.23;100.00;62281.09;4994230;28;20451;-71
2021/08/20 00:48:27;;;;;;;14.63;4.05;;;;;;;-141.23;100.00;62281.09;5010446;28;20057;-72
2021/08/20 00:51:20;;;;;;;16.33;4.22;;;;;;;-141.23;100.00;62281.09;5010428;28;20041;-73
2021/08/20 00:53:50;;;;;;;7.50;4.35;;;;;;;-141.23;100.00;62281.09;4993739;28;20049;-73
2021/08/20 00:56:16;;;;;;;8.73;4.20;;;;;;;-141.23;100.00;62281.09;4994283;28;20033;-73
2021/08/20 00:58:42;;;;;;;13.45;3.92;;;;;;;-141.23;100.00;62281.09;4994385;28;20045;-73
2021/08/20 01:01:09;;;;;;;9.18;3.97;;;;;;;-141.23;100.00;62281.09;4978103;28;20045;-73
2021/08/20 01:03:36;;;;;;;12.35;3.90;;;;;;;-141.23;100.00;62281.09;5010414;28;20046;-73
2021/08/20 01:06:03;;;;;;;11.32;4.75;;;;;;;-141.23;100.00;62281.09;5010271;28;20044;-73
2021/08/20 01:08:34;;;;;;;17.55;4.15;;;;;;;-141.23;100.00;62281.09;4961601;28;20179;-73
2021/08/20 01:11:04;;;;;;;15.27;4.20;;;;;;;-141.23;100.00;62281.09;4993950;28;20454;-72
2021/08/20 01:13:34;;;;;;;;;;;;;;;-141.23;100.00;62281.09;5010448;28;20048;-73
2021/08/20 01:16:01;;;;;;;10.48;3.85;;;;;;;-141.23;100.00;62281.09;4993719;28;19952;-73
2021/08/20 01:18:33;;;;;;;10.90;4.00;;;;;;;-141.23;100.00;62281.09;5010216;28;20044;-73
2021/08/20 01:21:09;;;;;;;8.85;4.80;;;;;;;-141.23;100.00;62281.09;4994386;28;20128;-72
2021/08/20 01:23:36;;;;;;;11.43;3.60;;;;;;;-141.23;100.00;62281.09;4977911;28;20042;-72
2021/08/20 01:26:03;;;;;;;13.52;3.97;;;;;;;-141.23;100.00;62281.09;4977698;28;20534;-72
2021/08/20 01:28:29;;;;;;;8.95;4.00;;;;;;;-141.23;100.00;62281.09;4977442;28;20108;-72
2021/08/20 01:31:00;;;;;;;15.07;6.32;;;;;;;-141.23;100.00;62281.09;4977212;28;20065;-72
2021/08/20 01:33:28;;;;;;;12.27;5.93;;;;;;;-141.23;100.00;62281.09;4977211;28;20519;-72
2021/08/20 01:35:54;;;;;;;20.48;7.65;;;;;;;-141.23;100.00;62281.09;5007765;28;20061;-72
2021/08/20 01:38:23;;;;;;;11.35;7.30;;;;;;;-141.23;100.00;62281.09;4974605;28;20038;-72
2021/08/20 01:40:50;;;;;;;13.15;7.40;;;;;;;-141.23;100.00;62281.09;4975062;28;20443;-73
2021/08/20 01:43:16;;;;;;;17.45;6.72;;;;;;;-141.23;100.00;62281.09;4959597;28;20042;-72
2021/08/20 01:45:43;;;;;;;12.10;6.38;;;;;;;-141.23;100.00;62281.09;4974107;28;20042;-72
2021/08/20 01:48:09;;;;;;;10.65;5.57;;;;;;;-141.23;100.00;62281.09;5005551;28;20046;-72
2021/08/20 01:50:40;;;;;;;8.93;4.97;;;;;;;-141.23;100.00;62281.09;4974018;28;20038;-73
2021/08/20 01:53:10;;;;;;;10.00;5.60;;;;;;;-141.23;100.00;62281.09;4991204;28;20052;-73
2021/08/20 01:55:36;;;;;;;11.18;5.20;;;;;;;-141.23;100.00;62281.09;5007322;28;20514;-73
2021/08/20 01:58:04;;;;;;;8.65;4.55;;;;;;;-141.23;100.00;62281.09;4991041;28;20053;-72
2021/08/20 02:00:30;;;;;;;10.90;4.90;;;;;;;-141.23;100.00;62281.09;4991114;28;20054;-73
2021/08/20 02:02:57;;;;;;;7.57;4.38;;;;;;;-141.23;100.00;62281.09;4992477;28;20050;-73
2021/08/20 02:05:25;;;;;;;7.72;4.68;;;;;;;-141.23;100.00;62281.09;5010779;28;20132;-73
2021/08/20 02:07:51;;;;;;;15.23;4.65;;;;;;;-141.23;100.00;62281.09;5009498;28;20188;-73
2021/08/20 02:10:21;;;;;;;10.40;4.63;;;;;;;-141.23;100.00;62281.09;5008766;28;20693;-73
2021/08/20 02:12:50;;;;;;;5.85;3.92;;;;;;;-141.23;100.00;62281.09;4992958;28;20507;-73
2021/08/20 02:15:16;;;;;;;8.43;4.18;;;;;;;-141.23;100.00;62281.09;4993325;28;20129;-73
2021/08/20 02:17:42;;;;;;;9.50;4.32;;;;;;;-141.23;100.00;62281.09;4993080;28;20440;-73
2021/08/20 02:20:10;;;;;;;7.35;4.18;;;;;;;-141.23;100.00;62281.09;4993338;28;20042;-72
2021/08/20 02:22:36;;;;;;;15.20;4.50;;;;;;;-141.23;100.00;62281.09;5020349;28;20058;-74
2021/08/20 02:25:02;;;;;;;12.32;4.80;;;;;;;-141.23;100.00;62281.09;5009405;28;20416;-74
2021/08/20 02:27:28;;;;;;;6.60;4.40;;;;;;;-141.23;100.00;62281.09;5009626;28;20477;-73
2021/08/20 02:29:58;;;;;;;10.10;4.70;;;;;;;-141.23;100.00;62281.09;5025156;28;20050;-73
2021/08/20 02:32:25;;;;;;;8.98;4.50;;;;;;;-141.23;100.00;62281.09;5009320;28;20042;-73
2021/08/20 02:34:50;;;;;;;14.25;4.90;;;;;;;-141.23;100.00;62281.09;4993257;28;20108;-73
2021/08/20 02:37:17;;;;;;;10.70;4.45;;;;;;;-141.23;100.00;62281.09;5009682;28;20176;-72
2021/08/20 02:39:44;;;;;;;16.33;4.95;;;;;;;-141.23;100.00;62281.09;5009334;28;20491;-73
2021/08/20 02:42:11;;;;;;;12.82;5.00;;;;;;;-141.23;100.00;62281.09;5009302;28;20084;-73
2021/08/20 02:44:36;;;;;;;9.70;4.57;;;;;;;-141.23;100.00;62281.09;5009080;28;20522;-73
2021/08/20 02:47:02;;;;;;;14.95;4.60;;;;;;;-141.23;100.00;62281.09;5009326;28;20085;-73
2021/08/20 02:49:29;;;;;;;14.20;4.80;;;;;;;-141.23;100.00;62281.09;4995264;28;20092;-73
2021/08/20 02:51:55;;;;;;;9.30;4.80;;;;;;;-141.23;100.00;62281.09;4996558;28;20450;-73
2021/08/20 02:54:26;;;;;;;17.23;4.70;;;;;;;-141.23;100.00;62281.09;5013009;28;20050;-74
2021/08/20 02:56:53;;;;;;;9.27;4.55;;;;;;;-141.23;100.00;62281.09;5012676;28;20041;-74
2021/08/20 02:59:21;;;;;;;12.00;4.57;;;;;;;-141.23;100.00;62281.09;5012889;28;20045;-73
2021/08/20 03:01:53;;;;;;;8.48;4.25;;;;;;;-141.23;100.00;62281.09;5013426;28;20100;-73
2021/08/20 03:04:20;;;;;;;13.48;5.30;;;;;;;-141.23;100.00;62281.09;5012838;28;20073;-74
2021/08/20 03:06:46;;;;;;;10.48;4.82;;;;;;;-141.23;100.00;62281.09;5012417;28;20042;-74
2021/08/20 03:09:24;;;;;;;11.82;4.68;;;;;;;-141.23;100.00;62281.09;5028561;28;20038;-74
2021/08/20 03:11:50;;;;;;;11.50;4.97;;;;;;;-141.23;100.00;62281.09;5028990;28;20053;-74
2021/08/20 03:14:16;;;;;;;11.25;4.20;;;;;;;-141.23;100.00;62281.09;4995703;28;20046;-72
2021/08/20 03:16:43;;;;;;;12.48;4.45;;;;;;;-141.23;100.00;62281.09;5012167;28;20083;-73
2021/08/20 03:19:09;;;;;;;20.80;6.20;;;;;;;-141.23;100.00;62281.09;5028412;28;20053;-73
2021/08/20 03:21:41;;;;;;;25.00;6.30;;;;;;;-141.23;100.00;62281.09;5011886;28;20415;-72
2021/08/20 03:24:19;;;;;;;18.27;6.03;;;;;;;53.16;6.20;98905.81;5191468;27;20337;-74
2021/08/20 03:26:57;;;;;;;32.50;7.53;;;;;;;53.08;6.05;98893.94;5108301;27;20129;-74
2021/08/20 03:29:36;;;;;;;22.70;7.30;;;;;;;53.12;6.21;98894.59;5162144;27;20169;-73
2021/08/20 03:32:29;;;;;;;23.40;6.50;;;;;;;53.32;6.25;98899.97;5106977;27;1419206;-73
2021/08/20 03:35:06;;;;;;;29.50;7.25;;;;;;;53.74;6.12;98900.41;5100478;27;1488055;-73
2021/08/20 03:37:42;;;;;;;19.20;6.45;;;;;;;53.49;5.81;98904.19;5102177;27;1450265;-73
2021/08/20 03:40:50;;;;;;;37.08;9.90;;;;;;;53.82;5.73;98908.19;5105509;27;1446731;-73
2021/08/20 03:43:32;;;;;;;25.88;7.35;;;;;;;53.77;6.05;98919.34;5088082;27;20744;-72
2021/08/20 03:46:21;;;;;;;28.45;7.32;;;;;;;53.95;6.25;98910.97;5103214;27;1424319;-72
2021/08/20 03:48:59;;;;;;;14.45;5.90;;;;;;;53.94;5.85;98921.53;5191523;27;20134;-72
2021/08/20 03:51:39;;;;;;;17.25;5.95;;;;;;;54.01;5.83;98921.25;5083500;28;20394;-73
2021/08/20 03:54:27;;;;;;;12.50;5.72;;;;;;;53.79;5.64;98919.69;5101364;27;1430669;-73
2021/08/20 03:57:05;;;;;;;17.30;6.57;;;;;;;53.88;5.82;98928.25;5081047;27;1463747;-72
2021/08/20 03:59:43;;;;;;;9.88;5.55;;;;;;;53.72;6.00;98925.66;5101223;27;1436201;-73
2021/08/20 04:02:24;;;;;;;11.88;5.60;;;;;;;53.81;5.74;98931.41;5100214;27;1504721;-72
2021/08/20 04:05:03;;;;;;;14.90;6.28;;;;;;;54.06;5.93;98923.47;5128781;27;20902;-73
2021/08/20 04:07:58;;;;;;;19.25;7.07;;;;;;;53.90;5.88;98926.56;5080846;27;2118038;-74
2021/08/20 04:10:53;;;;;;;20.35;6.53;;;;;;;54.30;5.68;98935.16;5076188;27;1547331;-74
2021/08/20 04:14:01;;;;;;;11.35;5.47;;;;;;;54.25;5.78;98933.72;5170420;27;20478;-73
2021/08/20 04:16:38;;;;;;;13.55;5.70;;;;;;;54.21;5.54;98933.03;5108576;27;20391;-73
2021/08/20 04:19:16;;;;;;;10.95;5.40;;;;;;;54.30;5.47;98938.00;5149698;27;20215;-73
2021/08/20 04:21:55;;;;;;;12.38;5.57;;;;;;;54.34;5.82;98930.88;5170797;27;20592;-75
2021/08/20 04:24:33;;;;;;;14.20;5.80;;;;;;;54.40;5.43;98934.69;5101566;27;1459535;-73
2021/08/20 04:27:27;;;;;;;15.30;5.63;;;;;;;53.36;6.45;98926.97;5084445;27;1460186;-77
2021/08/20 04:30:32;;;;;;;12.93;5.68;;;;;;;52.91;6.70;98923.72;5102440;27;1402043;-74
2021/08/20 04:33:31;;;;;;;12.57;5.28;;;;;;;54.08;5.84;98931.53;5083570;28;20894;-73
2021/08/20 04:36:29;;;;;;;18.80;5.22;;;;;;;54.54;5.90;98927.66;5087940;28;20141;-74
2021/08/20 04:39:39;;;;;;;12.55;6.00;;;;;;;54.77;5.54;98933.53;5108604;27;20538;-74
2021/08/20 04:42:42;;;;;;;13.65;5.35;;;;;;;54.64;5.44;98929.25;5108500;27;20395;-73
2021/08/20 04:45:54;;;;;;;15.43;5.05;;;;;;;54.95;5.68;98929.94;5074983;27;1506461;-72
2021/08/20 04:49:03;;;;;;;14.30;5.78;;;;;;;55.67;4.79;98929.91;5051630;27;1467923;-73
2021/08/20 04:52:01;;;;;;;12.10;5.72;;;;;;;55.37;4.97;98930.09;5106880;27;20469;-73
2021/08/20 04:54:56;;;;;;;17.77;6.22;;;;;;;55.94;4.73;98927.03;5102219;27;1437771;-73
2021/08/20 04:57:59;;;;;;;19.05;5.90;;;;;;;56.22;4.32;98924.88;5102886;27;1415411;-75
2021/08/20 05:00:35;;;;;;;19.00;6.53;;;;;;;55.77;4.70;98925.00;4061151;27;31031645;-74
2021/08/20 05:03:10;;;;;;;15.23;5.90;;;;;;;55.69;4.76;98926.59;4609459;27;15781170;-74
2021/08/20 05:06:04;;;;;;;13.15;5.60;;;;;;;56.02;4.58;98927.47;5111208;27;20428;-73
2021/08/20 05:09:01;;;;;;;15.02;5.75;;;;;;;56.44;4.43;98921.78;5088243;27;20439;-73
2021/08/20 05:12:00;;;;;;;14.27;5.18;;;;;;;57.18;3.50;98915.84;5088669;27;20400;-73
2021/08/20 05:14:54;;;;;;;14.63;4.57;;;;;;;56.55;3.73;98922.78;5097401;27;20786;-73
2021/08/20 05:17:30;;;;;;;11.60;4.15;;;;;;;56.89;3.51;98922.25;4635685;27;15080977;-73
2021/08/20 05:20:06;;;;;;;13.35;4.65;;;;;;;57.05;3.59;98921.84;4633849;27;15088235;-73
2021/08/20 05:22:45;;;;;;;8.32;4.30;;;;;;;58.17;2.99;98919.75;4488168;27;18603572;-73
2021/08/20 05:25:37;;;;;;;8.90;4.63;;;;;;;57.72;3.24;98916.13;5087524;27;20395;-73
2021/08/20 05:28:48;;;;;;;12.18;4.40;;;;;;;57.39;3.42;98917.59;5127728;27;20350;-73
2021/08/20 05:31:26;;;;;;;8.85;4.32;;;;;;;57.88;3.02;98919.78;5129154;27;20124;-73
2021/08/20 05:34:15;;;;;;;9.10;4.18;;;;;;;58.08;3.01;98917.78;5191261;27;20394;-74
2021/08/20 05:36:52;;;;;;;8.85;4.10;;;;;;;58.40;2.64;98921.66;5101342;27;1436601;-73
2021/08/20 05:39:28;;;;;;;8.60;4.13;;;;;;;58.60;2.76;98919.66;5085934;27;1435805;-74
2021/08/20 05:42:05;;;;;;;10.50;3.97;;;;;;;58.51;2.47;98911.22;5092797;27;1478251;-74
2021/08/20 05:44:40;;;;;;;7.65;3.70;;;;;;;58.28;2.64;98928.50;5088570;27;1421927;-75
2021/08/20 05:47:16;;;;;;;7.70;3.60;;;;;;;58.52;2.26;98918.50;5128654;27;20394;-73
2021/08/20 05:49:53;;;;;;;7.43;3.90;;;;;;;58.78;2.34;98932.91;5086703;27;20128;-74
2021/08/20 05:52:34;;;;;;;7.10;4.00;;;;;;;59.74;1.91;98937.16;5080386;27;1460568;-74
2021/08/20 05:55:12;;;;;;;;;;;;;;;60.33;1.61;98941.06;5170586;27;19930;-74
2021/08/20 05:57:50;;;;;;;6.30;4.10;;;;;;;58.95;2.34;98931.03;5190651;27;19933;-73
2021/08/20 06:00:28;;;;;;;7.55;3.80;;;;;;;59.23;2.07;98937.91;5149224;27;20130;-72
2021/08/20 06:03:42;;;;;;;6.38;3.90;;;;;;;60.71;1.41;98940.56;5108085;27;20739;-71
2021/08/20 06:06:39;;;;;;;9.60;3.47;;;;;;;60.15;2.13;98941.44;5170441;27;20788;-70
2021/08/20 06:09:17;;;;;;;6.90;4.03;;;;;;;59.99;1.72;98936.38;5083598;27;1431031;-72
2021/08/20 06:11:54;;;;;;;7.97;3.88;;;;;;;60.01;1.82;98937.41;5191437;27;20139;-72
2021/08/20 06:14:33;;;;;;;11.25;3.88;;;;;;;59.83;1.60;98939.84;5170308;27;20293;-75
2021/08/20 06:17:08;;;;;;;7.38;3.63;;;;;;;59.62;1.67;98935.50;5077974;27;2107538;-71
2021/08/20 06:19:44;;;;;;;8.88;3.90;;;;;;;59.34;2.07;98925.81;5191294;27;20382;-72
2021/08/20 06:22:23;;;;;;;9.68;3.75;;;;;;;59.21;2.03;98931.88;5120535;27;20389;-72
2021/08/20 06:24:59;;;;;;;6.47;3.55;;;;;;;59.23;1.82;98931.38;5068001;28;20135;-73
2021/08/20 06:27:36;;;;;;;14.18;4.00;;;;;;;59.21;1.93;98943.34;5108245;27;20128;-72
2021/08/20 06:30:14;;;;;;;9.63;3.83;;;;;;;59.15;1.79;98933.13;5161715;27;20735;-73
2021/08/20 06:32:50;;;;;;;8.13;3.40;;;;;;;58.98;1.67;98924.34;5102446;27;1432522;-72
2021/08/20 06:35:27;;;;;;;7.50;3.83;;;;;;;58.76;2.12;98924.81;5149489;27;20397;-73
2021/08/20 06:38:02;;;;;;;5.82;3.70;;;;;;;59.07;1.81;98936.44;5099490;27;1486714;-75
2021/08/20 06:40:41;;;;;;;5.75;3.58;;;;;;;59.26;1.74;98928.31;5148040;27;20176;-73
2021/08/20 06:43:17;;;;;;;17.00;4.25;;;;;;;59.46;1.50;98927.47;5059907;27;2114469;-73
2021/08/20 06:45:54;;;;;;;5.95;3.65;;;;;;;59.58;1.77;98917.75;5106701;27;1415102;-74
2021/08/20 06:48:30;;;;;;;7.85;3.80;;;;;;;59.51;1.70;98918.94;5105056;27;1447419;-73
2021/08/20 06:51:07;;;;;;;9.18;3.88;;;;;;;59.81;1.42;98914.53;5087412;27;20132;-73
2021/08/20 06:53:42;;;;;;;12.48;3.60;;;;;;;59.67;1.76;98914.69;5099837;27;1471151;-68
2021/08/20 06:56:17;;;;;;;6.45;3.47;;;;;;;60.35;1.32;98919.16;5102038;27;1429059;-73
2021/08/20 06:58:59;;;;;;;6.53;3.80;;;;;;;60.32;1.44;98922.25;5170211;27;20384;-74
2021/08/20 07:01:38;;;;;;;7.65;3.58;;;;;;;60.69;1.35;98925.91;5100147;27;1445658;-74
2021/08/20 07:04:15;;;;;;;8.05;3.20;;;;;;;60.88;1.15;98927.06;5107808;27;20140;-74
2021/08/20 07:06:53;;;;;;;8.68;3.97;;;;;;;61.81;0.45;98919.97;5100454;27;1555529;-76
2021/08/20 07:09:28;;;;;;;7.60;4.10;;;;;;;60.90;0.89;98915.81;5093864;27;1437790;-82
2021/08/20 07:12:06;;;;;;;7.82;3.85;;;;;;;61.42;0.91;98914.19;5108033;27;20395;-76
2021/08/20 07:14:43;;;;;;;10.90;4.18;;;;;;;61.76;1.31;98915.78;5064273;27;1447421;-73
2021/08/20 07:17:44;;;;;;;6.70;3.40;;;;;;;62.04;0.75;98918.66;5090394;27;1417321;-73
2021/08/20 07:20:19;;;;;;;9.02;3.97;;;;;;;62.34;0.32;98916.84;5100459;27;1483961;-71
2021/08/20 07:22:56;;;;;;;12.30;4.55;;;;;;;62.58;0.33;98922.00;5120856;27;20389;-75
2021/08/20 07:25:32;;;;;;;7.15;3.88;;;;;;;62.48;0.96;98912.88;5128765;27;20498;-76
2021/08/20 07:28:09;;;;;;;10.93;4.13;;;;;;;63.17;0.45;98925.19;5124133;27;20133;-74
2021/08/20 07:30:44;;;;;;;11.75;4.30;;;;;;;64.46;0.04;98925.22;5099473;27;1585207;-73
2021/08/20 07:33:19;;;;;;;9.70;4.97;;;;;;;66.19;0.00;98927.94;5106926;27;1414801;-74
2021/08/20 07:35:57;;;;;;;18.40;5.88;;;;;;;68.45;0.00;98928.50;5087622;27;1842181;-74
2021/08/20 07:38:34;;;;;;;16.20;5.65;;;;;;;71.06;0.00;98915.41;5106590;27;1431535;-76
2021/08/20 07:41:09;;;;;;;14.80;4.82;;;;;;;74.12;0.00;98905.06;5100772;27;1442597;-74
2021/08/20 07:43:59;;;;;;;9.05;4.30;;;;;;;76.72;0.00;98896.28;5067696;28;20417;-74
2021/08/20 07:46:35;;;;;;;12.32;5.15;;;;;;;78.38;0.00;98878.91;5101052;27;1453551;-74
2021/08/20 07:49:10;;;;;;;16.35;5.93;;;;;;;79.76;0.00;98886.88;5099691;27;1459567;-74
2021/08/20 07:51:45;;;;;;;12.87;3.90;;;;;;;80.62;0.00;98872.91;5089374;27;1795158;-74
2021/08/20 07:54:20;;;;;;;6.40;3.20;;;;;;;81.52;0.00;98876.53;5080335;27;1470453;-76
2021/08/20 07:57:11;;;;;;;6.68;3.40;;;;;;;82.57;0.00;98864.88;5087248;27;20430;-76
2021/08/20 07:59:49;;;;;;;10.10;2.80;;;;;;;83.57;0.00;98867.31;5190820;27;20137;-73
2021/08/20 08:02:25;;;;;;;17.95;3.90;;;;;;;84.29;0.00;98864.75;5107120;27;1408469;-73
2021/08/20 08:05:16;;;;;;;10.25;3.67;;;;;;;85.65;0.00;98850.41;5128298;27;20181;-74
2021/08/20 08:08:10;;;;;;;8.77;3.22;;;;;;;86.61;0.00;98851.38;5191171;27;20466;-74
2021/08/20 08:10:45;;;;;;;11.30;3.20;;;;;;;88.15;0.00;98845.56;4478407;27;19243302;-73
2021/08/20 08:13:39;;;;;;;7.70;3.35;;;;;;;89.34;0.00;98848.00;5108721;27;20419;-74
2021/08/20 08:16:35;;;;;;;7.22;2.72;;;;;;;89.10;0.00;98841.72;5095025;27;20548;-73
2021/08/20 08:19:28;;;;;;;14.27;3.83;;;;;;;88.54;0.00;98829.72;5093736;27;20403;-74
2021/08/20 08:22:35;;;;;;;12.45;3.00;;;;;;;88.84;0.00;98835.38;5146588;27;20927;-76
2021/08/20 08:25:11;;;;;;;12.27;3.57;;;;;;;89.10;0.00;98831.94;4502129;27;18704074;-74
2021/08/20 08:28:05;;;;;;;7.80;3.70;;;;;;;89.09;0.00;98833.44;5087213;27;20403;-77
2021/08/20 08:30:42;;;;;;;9.93;3.17;;;;;;;89.32;0.00;98835.25;4922586;27;6366128;-74
2021/08/20 08:33:18;;;;;;;9.07;3.15;;;;;;;89.10;0.00;98832.75;4384631;27;20944317;-73
2021/08/20 08:35:54;;;;;;;9.48;2.97;;;;;;;89.12;0.00;98829.03;4522144;27;17908224;-74
2021/08/20 08:38:30;;;;;;;6.90;3.00;;;;;;;88.90;0.00;98825.72;4485738;27;17919996;-74
2021/08/20 08:41:22;;;;;;;10.82;3.20;;;;;;;89.75;0.00;98822.94;5095025;27;20664;-75
2021/08/20 08:44:12;;;;;;;13.23;3.78;;;;;;;90.25;0.00;98819.63;5122640;27;20200;-74
2021/08/20 08:46:49;;;;;;;14.70;3.70;;;;;;;89.31;0.00;98827.72;4732062;27;11677214;-73
2021/08/20 08:49:27;;;;;;;12.23;3.90;;;;;;;90.01;0.00;98822.44;5161577;27;20130;-75
2021/08/20 08:52:04;;;;;;;7.57;3.55;;;;;;;90.53;0.00;98822.03;5129870;27;20588;-75
2021/08/20 08:54:39;;;;;;;12.75;3.90;;;;;;;88.85;0.00;98830.91;5089983;27;1457177;-77
2021/08/20 08:57:18;;;;;;;21.10;4.50;;;;;;;89.57;0.00;98828.00;5149051;27;20381;-76
2021/08/20 08:59:57;;;;;;;13.88;5.47;;;;;;;89.63;0.00;98822.81;5107655;27;20395;-78
2021/08/20 09:02:35;;;;;;;12.38;5.38;;;;;;;89.81;0.00;98820.00;5108890;27;20384;-78
2021/08/20 09:05:10;;;;;;;14.65;4.68;;;;;;;88.77;0.00;98824.06;5103503;27;1393560;-67
2021/08/20 09:07:54;;;;;;;18.90;4.90;;;;;;;88.12;0.00;98814.06;5170077;27;20469;-67
2021/08/20 09:10:31;;;;;;;12.10;4.68;;;;;;;85.41;0.00;98816.16;5108219;27;20391;-68
2021/08/20 09:13:07;;;;;;;12.73;4.85;;;;;;;84.56;0.00;98821.75;5088168;27;1402026;-67
2021/08/20 09:15:45;;;;;;;8.60;3.97;;;;;;;86.02;0.00;98819.34;5107835;27;20384;-66
2021/08/20 09:18:23;;;;;;;10.30;4.18;;;;;;;87.73;0.00;98826.88;5086556;27;20374;-68
2021/08/20 09:20:58;;;;;;;11.43;4.25;;;;;;;86.60;0.00;98831.91;5086652;27;1429490;-68
2021/08/20 09:23:48;;;;;;;10.48;3.80;;;;;;;88.27;0.00;98836.03;5087226;27;20389;-68
2021/08/20 09:26:36;;;;;;;14.93;4.20;;;;;;;88.83;0.00;98845.09;5125553;27;20399;-71
2021/08/20 09:29:13;;;;;;;10.68;4.22;;;;;;;88.73;0.00;98842.72;5108530;27;20132;-67
2021/08/20 09:31:50;;;;;;;13.77;3.70;;;;;;;88.84;0.00;98837.63;5100124;27;1488883;-67
2021/08/20 09:34:29;;;;;;;9.95;3.80;;;;;;;89.09;0.00;98843.16;5108157;27;20384;-67
2021/08/20 09:37:13;;;;;;;12.55;3.70;;;;;;;89.92;0.00;98841.84;5097718;27;1434873;-67
2021/08/20 09:39:52;;;;;;;8.73;3.53;;;;;;;88.63;0.00;98840.31;5112057;27;1376269;-69
2021/08/20 09:42:27;;;;;;;19.90;3.60;;;;;;;88.74;0.00;98831.50;5101784;27;1391779;-66
2021/08/20 09:45:21;;;;;;;7.20;3.10;;;;;;;89.98;0.00;98838.13;5108596;27;20941;-68
2021/08/20 09:47:57;;;;;;;9.85;3.40;;;;;;;88.27;0.00;98842.00;5102739;27;1429091;-67
2021/08/20 09:50:41;;;;;;;10.80;3.33;;;;;;;87.85;0.00;98830.06;5170484;27;19930;-66
2021/08/20 09:53:16;;;;;;;6.78;3.30;;;;;;;72.72;0.00;98810.34;5103723;27;1388519;-68
2021/08/20 09:55:52;;;;;;;7.60;3.20;;;;;;;65.56;0.00;98820.94;5108157;27;20128;-67
2021/08/20 09:58:31;;;;;;;8.73;3.10;;;;;;;63.90;0.00;98840.44;5105688;27;1399714;-66
2021/08/20 10:01:07;;;;;;;16.25;3.50;;;;;;;63.37;0.00;98834.63;5108103;27;20891;-66
2021/08/20 10:03:44;;;;;;;7.25;2.92;;;;;;;63.33;0.00;98849.34;5128314;27;20127;-68
2021/08/20 10:06:23;;;;;;;13.85;3.20;;;;;;;63.66;0.00;98854.84;5108781;27;20395;-72
2021/08/20 10:09:18;;;;;;;13.50;3.10;;;;;;;64.18;0.00;98863.25;5067815;28;20382;-70
2021/08/20 10:11:54;;;;;;;7.20;3.00;;;;;;;64.67;0.00;98859.81;5102235;27;1438573;-71
2021/08/20 10:14:31;;;;;;;14.80;3.42;;;;;;;65.32;0.00;98855.75;5089963;27;1407547;-72
2021/08/20 10:16:57;;;;;;;7.80;2.72;;;;;;;65.67;0.00;98856.22;5127256;28;20642;-73
2021/08/20 10:19:23;;;;;;;8.60;2.83;;;;;;;65.84;0.00;98847.25;5127105;28;20047;-71
2021/08/20 10:21:49;;;;;;;12.77;3.22;;;;;;;66.04;0.00;98844.53;5093266;28;20085;-70
2021/08/20 10:24:15;;;;;;;7.70;3.20;;;;;;;66.16;0.00;98847.22;5124275;28;20040;-71
2021/08/20 10:26:45;;;;;;;8.77;2.80;;;;;;;66.11;0.00;98840.19;5116931;28;20047;-71
2021/08/20 10:29:10;;;;;;;4.25;2.50;;;;;;;66.05;0.00;98836.63;5120246;28;20043;-70
2021/08/20 10:31:37;;;;;;;11.30;2.80;;;;;;;65.94;0.00;98834.72;5102082;28;20042;-70
2021/08/20 10:34:30;;;;;;;10.23;2.83;;;;;;;66.17;0.00;98831.38;5104070;28;20463;-71
2021/08/20 10:37:16;;;;;;;11.27;3.00;;;;;;;66.22;0.00;98834.19;5118769;27;20506;-70
2021/08/20 10:39:47;;;;;;;6.95;3.17;;;;;;;66.10;0.00;98826.28;5118105;28;20137;-69
2021/08/20 10:42:15;;;;;;;11.35;2.80;;;;;;;66.28;0.00;98840.66;5098126;28;20036;-69
2021/08/20 10:45:07;;;;;;;5.90;2.83;;;;;;;66.39;0.00;98846.22;5149388;27;20405;-71
2021/08/20 10:47:45;;;;;;;13.00;2.80;;;;;;;66.39;0.00;98846.22;5090194;27;1435508;-70
2021/08/20 10:50:22;;;;;;;7.53;3.17;;;;;;;66.20;0.00;98857.13;5093652;27;1533125;-72
2021/08/20 10:53:19;;;;;;;9.02;2.80;;;;;;;66.04;0.00;98852.44;5160547;27;20457;-72
2021/08/20 10:56:32;;;;;;;8.97;3.13;;;;;;;66.03;0.00;98850.88;5054804;27;2102981;-70
2021/08/20 10:59:38;;;;;;;10.48;3.10;;;;;;;65.92;0.00;98857.63;5189474;27;20378;-69
2021/08/20 11:02:22;;;;;;;8.82;2.55;;;;;;;65.61;0.00;98852.66;5167851;27;20129;-69
2021/08/20 11:04:59;;;;;;;13.13;3.00;;;;;;;64.99;0.00;98841.81;5082308;27;1367102;-70
2021/08/20 11:07:36;;;;;;;8.75;2.88;;;;;;;64.48;0.00;98838.03;5107324;27;20186;-70
2021/08/20 11:10:30;;;;;;;4.53;2.50;;;;;;;63.20;0.00;98840.53;5106453;27;20433;-70
2021/08/20 11:13:10;;;;;;;6.68;2.72;;;;;;;61.95;0.00;98837.59;5103788;27;1428613;-70
2021/08/20 11:15:48;;;;;;;12.45;3.00;;;;;;;60.43;0.00;98839.13;5115657;27;20388;-70
2021/08/20 11:18:46;;;;;;;8.45;3.20;;;;;;;59.37;0.21;98824.47;5102348;27;1435024;-72
2021/08/20 11:21:42;;;;;;;12.05;3.40;;;;;;;58.19;0.77;98822.81;5103122;27;1401004;-70
2021/08/20 11:24:21;;;;;;;11.48;7.75;;;;;;;56.93;1.41;98839.28;5120578;27;20386;-70
2021/08/20 11:27:14;;;;;;;8.18;3.42;;;;;;;55.49;2.00;98835.94;5100313;27;1446121;-68
2021/08/20 11:31:23;;;;;;;10.48;3.50;;;;;;;53.81;2.28;98846.16;5109136;27;1437297;-70
2021/08/20 11:33:49;;;;;;;7.95;3.05;;;;;;;52.87;3.02;98845.66;5075063;28;20601;-69
2021/08/20 11:36:19;;;;;;;5.78;3.25;;;;;;;52.62;3.18;98842.88;5125828;28;20104;-69
2021/08/20 11:38:53;;;;;;;10.10;3.30;;;;;;;52.23;3.08;98838.50;5126289;28;20126;-69
2021/08/20 11:41:36;;;;;;;8.45;2.97;;;;;;;51.57;3.49;98836.56;5109095;28;20406;-69
2021/08/20 11:44:07;;;;;;;11.60;4.07;;;;;;;50.95;4.10;98839.22;5105338;28;20043;-68
2021/08/20 11:46:41;;;;;;;10.65;3.20;;;;;;;50.12;4.36;98841.75;5127323;28;20043;-68
2021/08/20 11:49:09;;;;;;;7.75;3.22;;;;;;;49.68;4.70;98848.03;5110116;28;20050;-69
2021/08/20 11:51:38;;;;;;;8.65;3.30;;;;;;;49.20;5.07;98842.19;5116353;27;20073;-69
2021/08/20 11:54:12;;;;;;;9.70;3.90;;;;;;;49.06;5.21;98850.94;5133849;27;20035;-69
2021/08/20 11:56:49;;;;;;;14.77;4.30;;;;;;;48.49;5.64;98851.16;5078373;27;20048;-69
2021/08/20 11:59:15;;;;;;;12.73;4.03;;;;;;;47.75;6.02;98847.91;5116755;27;20096;-69
2021/08/20 12:01:41;;;;;;;13.73;3.50;;;;;;;47.19;6.30;98847.38;5118774;27;20047;-69
2021/08/20 12:04:08;;;;;;;13.45;4.22;;;;;;;46.81;6.91;98857.03;5083213;27;20043;-69
2021/08/20 12:07:23;;;;;;;6.68;3.67;;;;;;;46.34;7.12;98862.66;5116891;27;20046;-69
2021/08/20 12:09:59;;;;;;;16.88;3.53;;;;;;;46.03;7.46;98867.28;5116375;27;20056;-69
2021/08/20 12:12:26;;;;;;;8.07;3.53;;;;;;;45.54;7.91;98867.56;5134067;27;20096;-68